MOL Continuity — 3ESS2 — position and weather

sailwx.info

Track history (hours):
 
Tides and Currents Weather Stations Pressure Air Temp Water Temp Dewpoint Dewpoint Depression Visibility Wind Speed Wind Dir Waves Ship Positions

MOL Continuity

Last reported at 2018-Feb-21 06:55 UTC. Time now 2018-Feb-26 03:10 UTC.
Position N 38°29' W 123°59'.

Length 320 m; draft 12.2 m.

Type: Ship (hazmat cat A). MMSI: 370407000.

Date/timePositionNaut miles runAvg speedWind from/ knotsBaromVisibWave heightAir tempDewpointWater temp
2018-Feb-21 06:55N 38°29' W 123°59'921.0
2018-Feb-21 06:30N 38°24' W 123°50'1020.7
2018-Feb-21 06:00N 38°19' W 123°39'1020.8
2018-Feb-21 05:30N 38°13' W 123°28'1020.4
2018-Feb-21 05:00N 38°07' W 123°18'1020.5
2018-Feb-21 04:30N 37°59' W 123°09'1020.7
2018-Feb-21 04:00N 37°54' W 122°58'918.4
2018-Feb-21 03:30N 37°49' W 122°48'612.7
2018-Feb-21 03:00N 37°46' W 122°41'612.8
2018-Feb-21 02:31N 37°48' W 122°33'714.8
2018-Feb-21 02:00N 37°50' W 122°25'4 8.1
2018-Feb-21 01:30N 37°49' W 122°20'0 0.3
2018-Feb-21 01:00N 37°49' W 122°20'0 0.0
2018-Feb-21 00:30N 37°49' W 122°20'0 0.1
2018-Feb-21 00:00N 37°49' W 122°20'0 0.0
2018-Feb-20 23:30N 37°49' W 122°20'0 0.1
2018-Feb-20 23:00N 37°49' W 122°20'0 0.1
2018-Feb-20 22:30N 37°49' W 122°20'0 0.0
2018-Feb-20 22:00N 37°49' W 122°20'0 0.1
2018-Feb-20 21:30N 37°49' W 122°20'0 0.0
2018-Feb-20 21:00N 37°49' W 122°20'0 0.1
2018-Feb-20 20:30N 37°49' W 122°20'0 0.0
2018-Feb-20 20:00N 37°49' W 122°20'0 0.1
2018-Feb-20 19:30N 37°49' W 122°20'0 0.0
2018-Feb-20 19:00N 37°49' W 122°20'0 0.0
2018-Feb-20 18:30N 37°49' W 122°20'0 0.0
2018-Feb-20 17:57N 37°49' W 122°20'0 0.0
2018-Feb-20 17:30N 37°49' W 122°20'0 0.0
2018-Feb-20 17:00N 37°49' W 122°20'0 0.1
2018-Feb-20 16:30N 37°49' W 122°20'0 0.1
2018-Feb-20 16:00N 37°49' W 122°20'0 0.0
2018-Feb-20 15:30N 37°49' W 122°20'0 0.0
2018-Feb-20 14:57N 37°49' W 122°20'0 0.0
2018-Feb-20 14:30N 37°49' W 122°20'0 0.0
2018-Feb-20 14:00N 37°49' W 122°20'0 0.0
2018-Feb-20 13:30N 37°49' W 122°20'0 0.0
2018-Feb-20 13:00N 37°49' W 122°20'0 0.0
2018-Feb-20 12:30N 37°49' W 122°20'0 0.1
2018-Feb-20 12:00N 37°49' W 122°20'0 0.1
2018-Feb-20 11:30N 37°49' W 122°20'0 0.0
2018-Feb-20 11:00N 37°49' W 122°20'0 0.0
2018-Feb-20 10:30N 37°49' W 122°20'0 0.0
2018-Feb-20 10:00N 37°49' W 122°20'0 0.0
2018-Feb-20 09:30N 37°49' W 122°20'0 0.0
2018-Feb-20 09:00N 37°49' W 122°20'0 0.1
2018-Feb-20 08:30N 37°49' W 122°20'0 0.1
2018-Feb-20 08:00N 37°49' W 122°20'0 0.0
2018-Feb-20 07:27N 37°49' W 122°20'0 0.1
2018-Feb-20 07:00N 37°49' W 122°20'0 0.1
2018-Feb-20 06:30N 37°49' W 122°20'0 0.1
2018-Feb-20 05:59N 37°49' W 122°20'0 0.1
2018-Feb-20 05:29N 37°49' W 122°20'0 0.1
2018-Feb-20 04:59N 37°49' W 122°20'0 0.0
2018-Feb-20 04:29N 37°49' W 122°20'0 0.1
2018-Feb-20 03:59N 37°49' W 122°20'0 0.2
2018-Feb-20 03:30N 37°49' W 122°20'3 5.8
2018-Feb-20 03:00N 37°49' W 122°24'4 8.8
2018-Feb-20 02:30N 37°49' W 122°29'611.1
2018-Feb-20 02:00N 37°47' W 122°36'5 9.4
2018-Feb-20 01:30N 37°44' W 122°41'4 8.0
2018-Feb-20 01:00N 37°40' W 122°40'4 9.0
2018-Feb-20 00:30N 37°36' W 122°40'4 7.9
2018-Feb-20 00:00N 37°32' W 122°40'5 9.3
2018-Feb-19 23:30N 37°27' W 122°40'5 9.6
2018-Feb-19 23:00N 37°23' W 122°40'5 9.8
2018-Feb-19 22:30N 37°18' W 122°40'611.4
2018-Feb-19 22:00N 37°12' W 122°40'611.3
2018-Feb-19 21:30N 37°07' W 122°37'611.4
2018-Feb-19 21:00N 37°02' W 122°34'611.4
2018-Feb-19 20:30N 36°56' W 122°31'11216.3
2018-Feb-19 13:36N 35°15' W 121°31'218.9
2018-Feb-19 13:30N 35°14' W 121°29'919.4
2018-Feb-19 13:00N 35°06' W 121°23'1019.4
2018-Feb-19 12:30N 34°57' W 121°17'1019.5
2018-Feb-19 12:00N 34°49' W 121°10'1019.2
2018-Feb-19 11:30N 34°41' W 121°04'918.9
2018-Feb-19 11:00N 34°33' W 120°57'918.3
2018-Feb-19 10:30N 34°26' W 120°51'1019.0
2018-Feb-19 10:00N 34°24' W 120°39'1019.4
2018-Feb-19 09:30N 34°21' W 120°28'1020.1
2018-Feb-19 09:00N 34°18' W 120°16'1219.5
2018-Feb-19 08:22N 34°14' W 120°02'719.3
2018-Feb-19 08:00N 34°13' W 119°54'1019.0
2018-Feb-19 07:29N 34°10' W 119°42'1019.2
2018-Feb-19 06:59N 34°08' W 119°31'1019.6
2018-Feb-19 06:29N 34°05' W 119°20'1019.7
2018-Feb-19 05:58N 34°01' W 119°09'1019.9
2018-Feb-19 05:29N 33°56' W 118°58'1020.2
2018-Feb-19 05:00N 33°52' W 118°48'1020.7
2018-Feb-19 04:30N 33°46' W 118°38'918.6
2018-Feb-19 04:00N 33°42' W 118°28'714.1
2018-Feb-19 03:30N 33°38' W 118°20'5 8.6
2018-Feb-19 02:57N 33°40' W 118°15'3 6.7
2018-Feb-19 02:30N 33°43' W 118°16'2 3.8
2018-Feb-19 02:00N 33°45' W 118°16'0 0.9
2018-Feb-19 01:30N 33°45' W 118°16'0 0.0
2018-Feb-19 01:00N 33°45' W 118°16'0 0.0
2018-Feb-19 00:30N 33°45' W 118°16'0 0.0
2018-Feb-19 00:00N 33°45' W 118°16'0 0.0
2018-Feb-18 23:30N 33°45' W 118°16'0 0.0
2018-Feb-18 23:00N 33°45' W 118°16'0 0.0
2018-Feb-18 22:30N 33°45' W 118°16'0 0.0
2018-Feb-18 22:00N 33°45' W 118°16'0 0.0
2018-Feb-18 21:30N 33°45' W 118°16'0 0.0
2018-Feb-18 21:00N 33°45' W 118°16'0 0.0
2018-Feb-18 20:30N 33°45' W 118°16'0 0.0
2018-Feb-18 20:00N 33°45' W 118°16'0 0.0
2018-Feb-18 19:30N 33°45' W 118°16'0 0.0
2018-Feb-18 19:00N 33°45' W 118°16'0 0.0
2018-Feb-18 18:30N 33°45' W 118°16'0 0.0
2018-Feb-18 18:00N 33°45' W 118°16'0 0.0
2018-Feb-18 17:30N 33°45' W 118°16'0 0.0
2018-Feb-18 17:00N 33°45' W 118°16'0 0.0
2018-Feb-18 16:30N 33°45' W 118°16'0 0.0
2018-Feb-18 16:00N 33°45' W 118°16'0 0.0
2018-Feb-18 15:30N 33°45' W 118°16'0 0.0
2018-Feb-18 15:00N 33°45' W 118°16'0 0.0
2018-Feb-18 14:30N 33°45' W 118°16'0 0.0
2018-Feb-18 14:00N 33°45' W 118°16'0 0.0
2018-Feb-18 13:30N 33°45' W 118°16'0 0.0
2018-Feb-18 13:00N 33°45' W 118°16'0 0.0
2018-Feb-18 12:30N 33°45' W 118°16'0 0.0
2018-Feb-18 12:00N 33°45' W 118°16'0 0.0
2018-Feb-18 11:30N 33°45' W 118°16'0 0.0
2018-Feb-18 11:00N 33°45' W 118°16'0 0.1
2018-Feb-18 10:30N 33°45' W 118°16'0 0.0
2018-Feb-18 10:00N 33°45' W 118°16'0 0.0
2018-Feb-18 09:30N 33°45' W 118°16'0 0.0
2018-Feb-18 09:00N 33°45' W 118°16'0 0.0
2018-Feb-18 08:30N 33°45' W 118°16'0 0.0
2018-Feb-18 08:00N 33°45' W 118°16'0 0.0
2018-Feb-18 07:30N 33°45' W 118°16'0 0.0
2018-Feb-18 07:00N 33°45' W 118°16'0 0.0
2018-Feb-18 06:30N 33°45' W 118°16'0 0.0
2018-Feb-18 06:00N 33°45' W 118°16'0 0.0
2018-Feb-18 05:30N 33°45' W 118°16'0 0.0
2018-Feb-18 05:00N 33°45' W 118°16'0 0.0
2018-Feb-18 04:30N 33°45' W 118°16'0 0.0
2018-Feb-18 04:00N 33°45' W 118°16'0 0.0
2018-Feb-18 03:30N 33°45' W 118°16'0 0.0
2018-Feb-18 03:00N 33°45' W 118°16'0 0.0
2018-Feb-18 02:27N 33°45' W 118°16'0 0.0
2018-Feb-18 02:00N 33°45' W 118°16'0 0.0
2018-Feb-18 01:30N 33°45' W 118°16'0 0.0
2018-Feb-18 01:00N 33°45' W 118°16'0 0.0
2018-Feb-18 00:30N 33°45' W 118°16'0 0.0
2018-Feb-18 00:00N 33°45' W 118°16'0 0.0
2018-Feb-17 23:30N 33°45' W 118°16'0 0.0
2018-Feb-17 23:00N 33°45' W 118°16'0 0.0
2018-Feb-17 22:24N 33°45' W 118°16'0 0.0
2018-Feb-17 22:00N 33°45' W 118°16'0 0.0
2018-Feb-17 21:30N 33°45' W 118°16'0 0.0
2018-Feb-17 21:00N 33°45' W 118°16'0 0.0
2018-Feb-17 20:30N 33°45' W 118°16'0 0.0
2018-Feb-17 20:00N 33°45' W 118°16'0 0.0
2018-Feb-17 19:30N 33°45' W 118°16'0 0.0
2018-Feb-17 19:00N 33°45' W 118°16'0 0.0
2018-Feb-17 18:30N 33°45' W 118°16'0 0.0
2018-Feb-17 18:00N 33°45' W 118°16'0 0.0
2018-Feb-17 17:30N 33°45' W 118°16'0 0.0
2018-Feb-17 17:00N 33°45' W 118°16'0 0.0
2018-Feb-17 16:30N 33°45' W 118°16'0 0.0
2018-Feb-17 16:00N 33°45' W 118°16'0 0.0
2018-Feb-17 15:30N 33°45' W 118°16'0 0.0
2018-Feb-17 15:00N 33°45' W 118°16'0 0.0
2018-Feb-17 14:30N 33°45' W 118°16'0 0.0
2018-Feb-17 14:00N 33°45' W 118°16'0 0.0
2018-Feb-17 13:30N 33°45' W 118°16'0 0.0
2018-Feb-17 13:00N 33°45' W 118°16'0 0.0
2018-Feb-17 12:30N 33°45' W 118°16'0 0.0
2018-Feb-17 12:00N 33°45' W 118°16'0 0.0
2018-Feb-17 11:30N 33°45' W 118°16'0 0.0
2018-Feb-17 11:00N 33°45' W 118°16'0 0.0
2018-Feb-17 10:30N 33°45' W 118°16'0 0.0
2018-Feb-17 10:00N 33°45' W 118°16'0 0.0
2018-Feb-17 09:30N 33°45' W 118°16'0 0.0
2018-Feb-17 08:54N 33°45' W 118°16'0 0.0
2018-Feb-17 08:30N 33°45' W 118°16'0 0.0
2018-Feb-17 08:00N 33°45' W 118°16'0 0.0
2018-Feb-17 07:27N 33°45' W 118°16'0 0.1
2018-Feb-17 07:00N 33°45' W 118°16'0 0.0
2018-Feb-17 06:30N 33°45' W 118°16'0 0.0
2018-Feb-17 06:00N 33°45' W 118°16'0 0.0
2018-Feb-17 05:30N 33°45' W 118°16'0 0.0
2018-Feb-17 05:00N 33°45' W 118°16'0 0.0
2018-Feb-17 04:30N 33°45' W 118°16'0 0.0
2018-Feb-17 04:00N 33°45' W 118°16'0 0.0
2018-Feb-17 03:30N 33°45' W 118°16'0 0.0
2018-Feb-17 03:00N 33°45' W 118°16'0 0.0
2018-Feb-17 02:30N 33°45' W 118°16'0 0.0
2018-Feb-17 02:00N 33°45' W 118°16'0 0.0
2018-Feb-17 01:30N 33°45' W 118°16'0 0.0
2018-Feb-17 01:00N 33°45' W 118°16'0 0.0
2018-Feb-17 00:30N 33°45' W 118°16'0 0.0
2018-Feb-17 00:00N 33°45' W 118°16'0 0.0
2018-Feb-16 23:30N 33°45' W 118°16'0 0.0
2018-Feb-16 23:00N 33°45' W 118°16'0 0.0
2018-Feb-16 22:30N 33°45' W 118°16'0 0.0
2018-Feb-16 22:00N 33°45' W 118°16'0 0.0
2018-Feb-16 21:30N 33°45' W 118°16'0 0.0
2018-Feb-16 21:00N 33°45' W 118°16'0 0.0
2018-Feb-16 20:30N 33°45' W 118°16'0 0.0
2018-Feb-16 20:00N 33°45' W 118°16'0 0.0
2018-Feb-16 19:30N 33°45' W 118°16'0 0.0
2018-Feb-16 19:00N 33°45' W 118°16'0 0.0
2018-Feb-16 18:30N 33°45' W 118°16'0 0.0
2018-Feb-16 18:00N 33°45' W 118°16'0 0.0
2018-Feb-16 17:30N 33°45' W 118°16'0 0.0
2018-Feb-16 17:00N 33°45' W 118°16'0 0.0
2018-Feb-16 16:24N 33°45' W 118°16'0 0.0
2018-Feb-16 16:00N 33°45' W 118°16'0 0.0
2018-Feb-16 15:30N 33°45' W 118°16'0 0.0
2018-Feb-16 15:00N 33°45' W 118°16'0 0.0
2018-Feb-16 14:30N 33°45' W 118°16'0 0.0
2018-Feb-16 14:00N 33°45' W 118°16'0 0.0
2018-Feb-16 13:30N 33°45' W 118°16'0 0.0
2018-Feb-16 13:00N 33°45' W 118°16'0 0.0
2018-Feb-16 12:30N 33°45' W 118°16'0 0.0
2018-Feb-16 12:00N 33°45' W 118°16'0 0.0
2018-Feb-16 11:27N 33°45' W 118°16'0 0.0
2018-Feb-16 11:00N 33°45' W 118°16'0 0.0
2018-Feb-16 10:30N 33°45' W 118°16'0 0.0
2018-Feb-16 10:00N 33°45' W 118°16'0 0.0
2018-Feb-16 09:30N 33°45' W 118°16'0 0.0
2018-Feb-16 08:54N 33°45' W 118°16'0 0.0
2018-Feb-16 08:30N 33°45' W 118°16'0 0.0
2018-Feb-16 08:00N 33°45' W 118°16'0 0.0
2018-Feb-16 07:30N 33°45' W 118°16'0 0.0
2018-Feb-16 07:00N 33°45' W 118°16'0 0.0
2018-Feb-16 06:30N 33°45' W 118°16'0 0.0
2018-Feb-16 06:00N 33°45' W 118°16'0 0.0
2018-Feb-16 05:30N 33°45' W 118°16'0 0.0
2018-Feb-16 04:54N 33°45' W 118°16'0 0.0
2018-Feb-16 04:30N 33°45' W 118°16'0 0.0
2018-Feb-16 03:57N 33°45' W 118°16'0 0.0
2018-Feb-16 03:30N 33°45' W 118°16'0 0.0
2018-Feb-16 03:00N 33°45' W 118°16'0 0.0
2018-Feb-16 02:30N 33°45' W 118°16'0 0.0
2018-Feb-16 02:00N 33°45' W 118°16'0 0.0
2018-Feb-16 01:30N 33°45' W 118°16'0 0.0
2018-Feb-16 01:00N 33°45' W 118°16'0 0.0
2018-Feb-16 00:30N 33°45' W 118°16'0 0.0
2018-Feb-16 00:00N 33°45' W 118°16'0 0.0
2018-Feb-15 23:30N 33°45' W 118°16'0 0.0
2018-Feb-15 23:00N 33°45' W 118°16'0 0.0
2018-Feb-15 22:30N 33°45' W 118°16'0 0.0
2018-Feb-15 22:00N 33°45' W 118°16'0 0.0
2018-Feb-15 21:30N 33°45' W 118°16'0 0.1
2018-Feb-15 21:00N 33°45' W 118°16'0 0.1
2018-Feb-15 20:30N 33°45' W 118°16'0 0.0
2018-Feb-15 20:00N 33°45' W 118°16'0 0.0
2018-Feb-15 19:30N 33°45' W 118°16'0 0.0
2018-Feb-15 18:57N 33°45' W 118°16'0 0.0
2018-Feb-15 18:30N 33°45' W 118°16'0 0.0
2018-Feb-15 18:00N 33°45' W 118°16'0 0.0
2018-Feb-15 17:30N 33°45' W 118°16'0 0.0
2018-Feb-15 17:00N 33°45' W 118°16'0 0.0
2018-Feb-15 16:30N 33°45' W 118°16'0 0.0
2018-Feb-15 16:00N 33°45' W 118°16'0 0.0
2018-Feb-15 15:30N 33°45' W 118°16'0 0.0
2018-Feb-15 15:00N 33°45' W 118°16'0 0.0
2018-Feb-15 14:27N 33°45' W 118°16'0 0.1
2018-Feb-15 14:00N 33°45' W 118°16'0 0.0
2018-Feb-15 13:30N 33°45' W 118°16'0 0.0
2018-Feb-15 13:00N 33°45' W 118°16'0 0.0
2018-Feb-15 12:30N 33°45' W 118°16'0 0.0
2018-Feb-15 12:00N 33°45' W 118°16'0 0.0
2018-Feb-15 11:30N 33°45' W 118°16'0 0.0
2018-Feb-15 11:00N 33°45' W 118°16'0 0.0
2018-Feb-15 10:30N 33°45' W 118°16'0 0.0
2018-Feb-15 10:00N 33°45' W 118°16'0 0.0
2018-Feb-15 09:30N 33°45' W 118°16'0 0.0
2018-Feb-15 09:00N 33°45' W 118°16'0 0.0
2018-Feb-15 08:30N 33°45' W 118°16'0 0.0
2018-Feb-15 08:00N 33°45' W 118°16'0 0.0
2018-Feb-15 07:30N 33°45' W 118°16'0 0.0
2018-Feb-15 07:00N 33°45' W 118°16'0 0.0
2018-Feb-15 06:24N 33°45' W 118°16'0 0.0
2018-Feb-15 06:00N 33°45' W 118°16'0 0.0
2018-Feb-15 05:30N 33°45' W 118°16'0 0.0
2018-Feb-15 04:57N 33°45' W 118°16'0 0.0
2018-Feb-15 04:30N 33°45' W 118°16'0 0.0
2018-Feb-15 04:00N 33°45' W 118°16'0 0.0
2018-Feb-15 03:30N 33°45' W 118°16'0 0.0
2018-Feb-15 03:00N 33°45' W 118°16'0 0.0
2018-Feb-15 02:30N 33°45' W 118°16'0 0.0
2018-Feb-15 02:00N 33°45' W 118°16'0 0.0
2018-Feb-15 01:30N 33°45' W 118°16'0 0.0
2018-Feb-15 01:00N 33°45' W 118°16'0 0.0
2018-Feb-15 00:30N 33°45' W 118°16'0 0.0
2018-Feb-15 00:00N 33°45' W 118°16'0 0.0
2018-Feb-14 23:30N 33°45' W 118°16'0 0.0
2018-Feb-14 23:00N 33°45' W 118°16'0 0.0
2018-Feb-14 22:30N 33°45' W 118°16'0 0.0
2018-Feb-14 22:00N 33°45' W 118°16'0 0.0
2018-Feb-14 21:30N 33°45' W 118°16'0 0.0
2018-Feb-14 21:00N 33°45' W 118°16'0 0.0
2018-Feb-14 20:30N 33°45' W 118°16'0 0.0
2018-Feb-14 20:00N 33°45' W 118°16'0 0.0
2018-Feb-14 19:30N 33°45' W 118°16'0 0.0
2018-Feb-14 19:00N 33°45' W 118°16'0 0.0
2018-Feb-14 18:30N 33°45' W 118°16'0 0.0
2018-Feb-14 18:00N 33°45' W 118°16'0 0.0
2018-Feb-14 17:30N 33°45' W 118°16'0 0.0
2018-Feb-14 17:00N 33°45' W 118°16'0 0.0
2018-Feb-14 16:30N 33°45' W 118°16'0 0.0
2018-Feb-14 16:00N 33°45' W 118°16'0 0.0
2018-Feb-14 15:30N 33°45' W 118°16'0 0.0
2018-Feb-14 15:00N 33°45' W 118°16'0 0.0
2018-Feb-14 14:30N 33°45' W 118°16'0 0.0
2018-Feb-14 14:00N 33°45' W 118°16'0 0.0
2018-Feb-14 13:30N 33°45' W 118°16'0 0.0
2018-Feb-14 13:00N 33°45' W 118°16'0 0.0
2018-Feb-14 12:30N 33°45' W 118°16'0 0.0
2018-Feb-14 12:00N 33°45' W 118°16'0 0.0
2018-Feb-14 11:30N 33°45' W 118°16'0 0.0
2018-Feb-14 11:00N 33°45' W 118°16'0 0.0
2018-Feb-14 10:30N 33°45' W 118°16'0 0.0
2018-Feb-14 09:57N 33°45' W 118°16'0 0.0
2018-Feb-14 09:30N 33°45' W 118°16'0 0.0
2018-Feb-14 09:00N 33°45' W 118°16'0 0.0
2018-Feb-14 08:30N 33°45' W 118°16'0 0.0
2018-Feb-14 08:00N 33°45' W 118°16'0 0.0
2018-Feb-14 07:30N 33°45' W 118°16'0 0.0
2018-Feb-14 07:00N 33°45' W 118°16'0 0.0
2018-Feb-14 06:30N 33°45' W 118°16'0 0.0
2018-Feb-14 06:00N 33°45' W 118°16'0 0.0
2018-Feb-14 05:30N 33°45' W 118°16'0 0.0
2018-Feb-14 05:00N 33°45' W 118°16'0 0.0
2018-Feb-14 04:30N 33°45' W 118°16'0 0.0
2018-Feb-14 04:00N 33°45' W 118°16'0 0.0
2018-Feb-14 03:30N 33°45' W 118°16'0 0.0
2018-Feb-14 03:00N 33°45' W 118°16'0 0.0
2018-Feb-14 02:30N 33°45' W 118°16'0 0.0
2018-Feb-14 02:00N 33°45' W 118°16'0 0.0
2018-Feb-14 01:30N 33°45' W 118°16'0 0.0
2018-Feb-14 01:00N 33°45' W 118°16'0 0.0
2018-Feb-14 00:30N 33°45' W 118°16'0 0.0
2018-Feb-14 00:00N 33°45' W 118°16'0 0.0
2018-Feb-13 23:30N 33°45' W 118°16'1 2.8
2018-Feb-13 22:59N 33°44' W 118°16'4 7.3
2018-Feb-13 22:30N 33°41' W 118°14'4 7.2
2018-Feb-13 22:00N 33°37' W 118°14'3 6.8
2018-Feb-13 21:30N 33°36' W 118°18'4 8.8
2018-Feb-13 21:00N 33°37' W 118°23'3510.0
2018-Feb-13 17:34N 33°54' W 118°59'1 9.8
2018-Feb-13 17:29N 33°55' W 119°00'511.1
2018-Feb-13 16:59N 33°58' W 119°06'815.0
2018-Feb-13 16:27N 34°01' W 119°14'5 9.3
2018-Feb-13 15:55N 34°03' W 119°20'5 9.4
2018-Feb-13 15:25N 34°05' W 119°25'5 9.4
2018-Feb-13 14:56N 34°06' W 119°31'4 9.3
2018-Feb-13 14:30N 34°07' W 119°35'5 9.5
2018-Feb-13 13:59N 34°08' W 119°41'4 8.9
2018-Feb-13 13:30N 34°09' W 119°46'5 9.2
2018-Feb-13 12:59N 34°11' W 119°52'5 9.2
2018-Feb-13 12:28N 34°12' W 119°57'4 8.8
2018-Feb-13 12:00N 34°13' W 120°02'813.9
2018-Feb-13 11:27N 34°15' W 120°11'818.3
2018-Feb-13 11:00N 34°17' W 120°21'1018.7
2018-Feb-13 10:29N 34°20' W 120°32'918.8
2018-Feb-13 10:00N 34°22' W 120°42'918.7
2018-Feb-13 09:31N 34°25' W 120°53'1019.2
2018-Feb-13 09:00N 34°30' W 121°03'918.8
2018-Feb-13 08:31N 34°35' W 121°13'918.8
2018-Feb-13 08:00N 34°40' W 121°23'1019.2
2018-Feb-13 07:30N 34°45' W 121°32'1019.1
2018-Feb-13 07:00N 34°50' W 121°42'  
Track history (hours):
 
Tides and Currents Weather Stations Pressure Air Temp Water Temp Dewpoint Dewpoint Depression Visibility Wind Speed Wind Dir Waves Ship Positions

MOL Continuity

Last reported at 2018-Feb-21 06:55 UTC. Time now 2018-Feb-26 03:10 UTC.
Position N 38°29' W 123°59'.

Length 320 m; draft 12.2 m.

Type: Ship (hazmat cat A). MMSI: 370407000.

Date/timePositionNaut miles runAvg speedWind from/ knotsBaromVisibWave heightAir tempDewpointWater temp
2018-Feb-21 06:55N 38°29' W 123°59'921.0
2018-Feb-21 06:30N 38°24' W 123°50'1020.7
2018-Feb-21 06:00N 38°19' W 123°39'1020.8
2018-Feb-21 05:30N 38°13' W 123°28'1020.4
2018-Feb-21 05:00N 38°07' W 123°18'1020.5
2018-Feb-21 04:30N 37°59' W 123°09'1020.7
2018-Feb-21 04:00N 37°54' W 122°58'918.4
2018-Feb-21 03:30N 37°49' W 122°48'612.7
2018-Feb-21 03:00N 37°46' W 122°41'612.8
2018-Feb-21 02:31N 37°48' W 122°33'714.8
2018-Feb-21 02:00N 37°50' W 122°25'4 8.1
2018-Feb-21 01:30N 37°49' W 122°20'0 0.3
2018-Feb-21 01:00N 37°49' W 122°20'0 0.0
2018-Feb-21 00:30N 37°49' W 122°20'0 0.1
2018-Feb-21 00:00N 37°49' W 122°20'0 0.0
2018-Feb-20 23:30N 37°49' W 122°20'0 0.1
2018-Feb-20 23:00N 37°49' W 122°20'0 0.1
2018-Feb-20 22:30N 37°49' W 122°20'0 0.0
2018-Feb-20 22:00N 37°49' W 122°20'0 0.1
2018-Feb-20 21:30N 37°49' W 122°20'0 0.0
2018-Feb-20 21:00N 37°49' W 122°20'0 0.1
2018-Feb-20 20:30N 37°49' W 122°20'0 0.0
2018-Feb-20 20:00N 37°49' W 122°20'0 0.1
2018-Feb-20 19:30N 37°49' W 122°20'0 0.0
2018-Feb-20 19:00N 37°49' W 122°20'0 0.0
2018-Feb-20 18:30N 37°49' W 122°20'0 0.0
2018-Feb-20 17:57N 37°49' W 122°20'0 0.0
2018-Feb-20 17:30N 37°49' W 122°20'0 0.0
2018-Feb-20 17:00N 37°49' W 122°20'0 0.1
2018-Feb-20 16:30N 37°49' W 122°20'0 0.1
2018-Feb-20 16:00N 37°49' W 122°20'0 0.0
2018-Feb-20 15:30N 37°49' W 122°20'0 0.0
2018-Feb-20 14:57N 37°49' W 122°20'0 0.0
2018-Feb-20 14:30N 37°49' W 122°20'0 0.0
2018-Feb-20 14:00N 37°49' W 122°20'0 0.0
2018-Feb-20 13:30N 37°49' W 122°20'0 0.0
2018-Feb-20 13:00N 37°49' W 122°20'0 0.0
2018-Feb-20 12:30N 37°49' W 122°20'0 0.1
2018-Feb-20 12:00N 37°49' W 122°20'0 0.1
2018-Feb-20 11:30N 37°49' W 122°20'0 0.0
2018-Feb-20 11:00N 37°49' W 122°20'0 0.0
2018-Feb-20 10:30N 37°49' W 122°20'0 0.0
2018-Feb-20 10:00N 37°49' W 122°20'0 0.0
2018-Feb-20 09:30N 37°49' W 122°20'0 0.0
2018-Feb-20 09:00N 37°49' W 122°20'0 0.1
2018-Feb-20 08:30N 37°49' W 122°20'0 0.1
2018-Feb-20 08:00N 37°49' W 122°20'0 0.0
2018-Feb-20 07:27N 37°49' W 122°20'0 0.1
2018-Feb-20 07:00N 37°49' W 122°20'0 0.1
2018-Feb-20 06:30N 37°49' W 122°20'0 0.1
2018-Feb-20 05:59N 37°49' W 122°20'0 0.1
2018-Feb-20 05:29N 37°49' W 122°20'0 0.1
2018-Feb-20 04:59N 37°49' W 122°20'0 0.0
2018-Feb-20 04:29N 37°49' W 122°20'0 0.1
2018-Feb-20 03:59N 37°49' W 122°20'0 0.2
2018-Feb-20 03:30N 37°49' W 122°20'3 5.8
2018-Feb-20 03:00N 37°49' W 122°24'4 8.8
2018-Feb-20 02:30N 37°49' W 122°29'611.1
2018-Feb-20 02:00N 37°47' W 122°36'5 9.4
2018-Feb-20 01:30N 37°44' W 122°41'4 8.0
2018-Feb-20 01:00N 37°40' W 122°40'4 9.0
2018-Feb-20 00:30N 37°36' W 122°40'4 7.9
2018-Feb-20 00:00N 37°32' W 122°40'5 9.3
2018-Feb-19 23:30N 37°27' W 122°40'5 9.6
2018-Feb-19 23:00N 37°23' W 122°40'5 9.8
2018-Feb-19 22:30N 37°18' W 122°40'611.4
2018-Feb-19 22:00N 37°12' W 122°40'611.3
2018-Feb-19 21:30N 37°07' W 122°37'611.4
2018-Feb-19 21:00N 37°02' W 122°34'611.4
2018-Feb-19 20:30N 36°56' W 122°31'11216.3
2018-Feb-19 13:36N 35°15' W 121°31'218.9
2018-Feb-19 13:30N 35°14' W 121°29'919.4
2018-Feb-19 13:00N 35°06' W 121°23'1019.4
2018-Feb-19 12:30N 34°57' W 121°17'1019.5
2018-Feb-19 12:00N 34°49' W 121°10'1019.2
2018-Feb-19 11:30N 34°41' W 121°04'918.9
2018-Feb-19 11:00N 34°33' W 120°57'918.3
2018-Feb-19 10:30N 34°26' W 120°51'1019.0
2018-Feb-19 10:00N 34°24' W 120°39'1019.4
2018-Feb-19 09:30N 34°21' W 120°28'1020.1
2018-Feb-19 09:00N 34°18' W 120°16'1219.5
2018-Feb-19 08:22N 34°14' W 120°02'719.3
2018-Feb-19 08:00N 34°13' W 119°54'1019.0
2018-Feb-19 07:29N 34°10' W 119°42'1019.2
2018-Feb-19 06:59N 34°08' W 119°31'1019.6
2018-Feb-19 06:29N 34°05' W 119°20'1019.7
2018-Feb-19 05:58N 34°01' W 119°09'1019.9
2018-Feb-19 05:29N 33°56' W 118°58'1020.2
2018-Feb-19 05:00N 33°52' W 118°48'1020.7
2018-Feb-19 04:30N 33°46' W 118°38'918.6
2018-Feb-19 04:00N 33°42' W 118°28'714.1
2018-Feb-19 03:30N 33°38' W 118°20'5 8.6
2018-Feb-19 02:57N 33°40' W 118°15'3 6.7
2018-Feb-19 02:30N 33°43' W 118°16'2 3.8
2018-Feb-19 02:00N 33°45' W 118°16'0 0.9
2018-Feb-19 01:30N 33°45' W 118°16'0 0.0
2018-Feb-19 01:00N 33°45' W 118°16'0 0.0
2018-Feb-19 00:30N 33°45' W 118°16'0 0.0
2018-Feb-19 00:00N 33°45' W 118°16'0 0.0
2018-Feb-18 23:30N 33°45' W 118°16'0 0.0
2018-Feb-18 23:00N 33°45' W 118°16'0 0.0
2018-Feb-18 22:30N 33°45' W 118°16'0 0.0
2018-Feb-18 22:00N 33°45' W 118°16'0 0.0
2018-Feb-18 21:30N 33°45' W 118°16'0 0.0
2018-Feb-18 21:00N 33°45' W 118°16'0 0.0
2018-Feb-18 20:30N 33°45' W 118°16'0 0.0
2018-Feb-18 20:00N 33°45' W 118°16'0 0.0
2018-Feb-18 19:30N 33°45' W 118°16'0 0.0
2018-Feb-18 19:00N 33°45' W 118°16'0 0.0
2018-Feb-18 18:30N 33°45' W 118°16'0 0.0
2018-Feb-18 18:00N 33°45' W 118°16'0 0.0
2018-Feb-18 17:30N 33°45' W 118°16'0 0.0
2018-Feb-18 17:00N 33°45' W 118°16'0 0.0
2018-Feb-18 16:30N 33°45' W 118°16'0 0.0
2018-Feb-18 16:00N 33°45' W 118°16'0 0.0
2018-Feb-18 15:30N 33°45' W 118°16'0 0.0
2018-Feb-18 15:00N 33°45' W 118°16'0 0.0
2018-Feb-18 14:30N 33°45' W 118°16'0 0.0
2018-Feb-18 14:00N 33°45' W 118°16'0 0.0
2018-Feb-18 13:30N 33°45' W 118°16'0 0.0
2018-Feb-18 13:00N 33°45' W 118°16'0 0.0
2018-Feb-18 12:30N 33°45' W 118°16'0 0.0
2018-Feb-18 12:00N 33°45' W 118°16'0 0.0
2018-Feb-18 11:30N 33°45' W 118°16'0 0.0
2018-Feb-18 11:00N 33°45' W 118°16'0 0.1
2018-Feb-18 10:30N 33°45' W 118°16'0 0.0
2018-Feb-18 10:00N 33°45' W 118°16'0 0.0
2018-Feb-18 09:30N 33°45' W 118°16'0 0.0
2018-Feb-18 09:00N 33°45' W 118°16'0 0.0
2018-Feb-18 08:30N 33°45' W 118°16'0 0.0
2018-Feb-18 08:00N 33°45' W 118°16'0 0.0
2018-Feb-18 07:30N 33°45' W 118°16'0 0.0
2018-Feb-18 07:00N 33°45' W 118°16'0 0.0
2018-Feb-18 06:30N 33°45' W 118°16'0 0.0
2018-Feb-18 06:00N 33°45' W 118°16'0 0.0
2018-Feb-18 05:30N 33°45' W 118°16'0 0.0
2018-Feb-18 05:00N 33°45' W 118°16'0 0.0
2018-Feb-18 04:30N 33°45' W 118°16'0 0.0
2018-Feb-18 04:00N 33°45' W 118°16'0 0.0
2018-Feb-18 03:30N 33°45' W 118°16'0 0.0
2018-Feb-18 03:00N 33°45' W 118°16'0 0.0
2018-Feb-18 02:27N 33°45' W 118°16'0 0.0
2018-Feb-18 02:00N 33°45' W 118°16'0 0.0
2018-Feb-18 01:30N 33°45' W 118°16'0 0.0
2018-Feb-18 01:00N 33°45' W 118°16'0 0.0
2018-Feb-18 00:30N 33°45' W 118°16'0 0.0
2018-Feb-18 00:00N 33°45' W 118°16'0 0.0
2018-Feb-17 23:30N 33°45' W 118°16'0 0.0
2018-Feb-17 23:00N 33°45' W 118°16'0 0.0
2018-Feb-17 22:24N 33°45' W 118°16'0 0.0
2018-Feb-17 22:00N 33°45' W 118°16'0 0.0
2018-Feb-17 21:30N 33°45' W 118°16'0 0.0
2018-Feb-17 21:00N 33°45' W 118°16'0 0.0
2018-Feb-17 20:30N 33°45' W 118°16'0 0.0
2018-Feb-17 20:00N 33°45' W 118°16'0 0.0
2018-Feb-17 19:30N 33°45' W 118°16'0 0.0
2018-Feb-17 19:00N 33°45' W 118°16'0 0.0
2018-Feb-17 18:30N 33°45' W 118°16'0 0.0
2018-Feb-17 18:00N 33°45' W 118°16'0 0.0
2018-Feb-17 17:30N 33°45' W 118°16'0 0.0
2018-Feb-17 17:00N 33°45' W 118°16'0 0.0
2018-Feb-17 16:30N 33°45' W 118°16'0 0.0
2018-Feb-17 16:00N 33°45' W 118°16'0 0.0
2018-Feb-17 15:30N 33°45' W 118°16'0 0.0
2018-Feb-17 15:00N 33°45' W 118°16'0 0.0
2018-Feb-17 14:30N 33°45' W 118°16'0 0.0
2018-Feb-17 14:00N 33°45' W 118°16'0 0.0
2018-Feb-17 13:30N 33°45' W 118°16'0 0.0
2018-Feb-17 13:00N 33°45' W 118°16'0 0.0
2018-Feb-17 12:30N 33°45' W 118°16'0 0.0
2018-Feb-17 12:00N 33°45' W 118°16'0 0.0
2018-Feb-17 11:30N 33°45' W 118°16'0 0.0
2018-Feb-17 11:00N 33°45' W 118°16'0 0.0
2018-Feb-17 10:30N 33°45' W 118°16'0 0.0
2018-Feb-17 10:00N 33°45' W 118°16'0 0.0
2018-Feb-17 09:30N 33°45' W 118°16'0 0.0
2018-Feb-17 08:54N 33°45' W 118°16'0 0.0
2018-Feb-17 08:30N 33°45' W 118°16'0 0.0
2018-Feb-17 08:00N 33°45' W 118°16'0 0.0
2018-Feb-17 07:27N 33°45' W 118°16'0 0.1
2018-Feb-17 07:00N 33°45' W 118°16'0 0.0
2018-Feb-17 06:30N 33°45' W 118°16'0 0.0
2018-Feb-17 06:00N 33°45' W 118°16'0 0.0
2018-Feb-17 05:30N 33°45' W 118°16'0 0.0
2018-Feb-17 05:00N 33°45' W 118°16'0 0.0
2018-Feb-17 04:30N 33°45' W 118°16'0 0.0
2018-Feb-17 04:00N 33°45' W 118°16'0 0.0
2018-Feb-17 03:30N 33°45' W 118°16'0 0.0
2018-Feb-17 03:00N 33°45' W 118°16'0 0.0
2018-Feb-17 02:30N 33°45' W 118°16'0 0.0
2018-Feb-17 02:00N 33°45' W 118°16'0 0.0
2018-Feb-17 01:30N 33°45' W 118°16'0 0.0
2018-Feb-17 01:00N 33°45' W 118°16'0 0.0
2018-Feb-17 00:30N 33°45' W 118°16'0 0.0
2018-Feb-17 00:00N 33°45' W 118°16'0 0.0
2018-Feb-16 23:30N 33°45' W 118°16'0 0.0
2018-Feb-16 23:00N 33°45' W 118°16'0 0.0
2018-Feb-16 22:30N 33°45' W 118°16'0 0.0
2018-Feb-16 22:00N 33°45' W 118°16'0 0.0
2018-Feb-16 21:30N 33°45' W 118°16'0 0.0
2018-Feb-16 21:00N 33°45' W 118°16'0 0.0
2018-Feb-16 20:30N 33°45' W 118°16'0 0.0
2018-Feb-16 20:00N 33°45' W 118°16'0 0.0
2018-Feb-16 19:30N 33°45' W 118°16'0 0.0
2018-Feb-16 19:00N 33°45' W 118°16'0 0.0
2018-Feb-16 18:30N 33°45' W 118°16'0 0.0
2018-Feb-16 18:00N 33°45' W 118°16'0 0.0
2018-Feb-16 17:30N 33°45' W 118°16'0 0.0
2018-Feb-16 17:00N 33°45' W 118°16'0 0.0
2018-Feb-16 16:24N 33°45' W 118°16'0 0.0
2018-Feb-16 16:00N 33°45' W 118°16'0 0.0
2018-Feb-16 15:30N 33°45' W 118°16'0 0.0
2018-Feb-16 15:00N 33°45' W 118°16'0 0.0
2018-Feb-16 14:30N 33°45' W 118°16'0 0.0
2018-Feb-16 14:00N 33°45' W 118°16'0 0.0
2018-Feb-16 13:30N 33°45' W 118°16'0 0.0
2018-Feb-16 13:00N 33°45' W 118°16'0 0.0
2018-Feb-16 12:30N 33°45' W 118°16'0 0.0
2018-Feb-16 12:00N 33°45' W 118°16'0 0.0
2018-Feb-16 11:27N 33°45' W 118°16'0 0.0
2018-Feb-16 11:00N 33°45' W 118°16'0 0.0
2018-Feb-16 10:30N 33°45' W 118°16'0 0.0
2018-Feb-16 10:00N 33°45' W 118°16'0 0.0
2018-Feb-16 09:30N 33°45' W 118°16'0 0.0
2018-Feb-16 08:54N 33°45' W 118°16'0 0.0
2018-Feb-16 08:30N 33°45' W 118°16'0 0.0
2018-Feb-16 08:00N 33°45' W 118°16'0 0.0
2018-Feb-16 07:30N 33°45' W 118°16'0 0.0
2018-Feb-16 07:00N 33°45' W 118°16'0 0.0
2018-Feb-16 06:30N 33°45' W 118°16'0 0.0
2018-Feb-16 06:00N 33°45' W 118°16'0 0.0
2018-Feb-16 05:30N 33°45' W 118°16'0 0.0
2018-Feb-16 04:54N 33°45' W 118°16'0 0.0
2018-Feb-16 04:30N 33°45' W 118°16'0 0.0
2018-Feb-16 03:57N 33°45' W 118°16'0 0.0
2018-Feb-16 03:30N 33°45' W 118°16'0 0.0
2018-Feb-16 03:00N 33°45' W 118°16'0 0.0
2018-Feb-16 02:30N 33°45' W 118°16'0 0.0
2018-Feb-16 02:00N 33°45' W 118°16'0 0.0
2018-Feb-16 01:30N 33°45' W 118°16'0 0.0
2018-Feb-16 01:00N 33°45' W 118°16'0 0.0
2018-Feb-16 00:30N 33°45' W 118°16'0 0.0
2018-Feb-16 00:00N 33°45' W 118°16'0 0.0
2018-Feb-15 23:30N 33°45' W 118°16'0 0.0
2018-Feb-15 23:00N 33°45' W 118°16'0 0.0
2018-Feb-15 22:30N 33°45' W 118°16'0 0.0
2018-Feb-15 22:00N 33°45' W 118°16'0 0.0
2018-Feb-15 21:30N 33°45' W 118°16'0 0.1
2018-Feb-15 21:00N 33°45' W 118°16'0 0.1
2018-Feb-15 20:30N 33°45' W 118°16'0 0.0
2018-Feb-15 20:00N 33°45' W 118°16'0 0.0
2018-Feb-15 19:30N 33°45' W 118°16'0 0.0
2018-Feb-15 18:57N 33°45' W 118°16'0 0.0
2018-Feb-15 18:30N 33°45' W 118°16'0 0.0
2018-Feb-15 18:00N 33°45' W 118°16'0 0.0
2018-Feb-15 17:30N 33°45' W 118°16'0 0.0
2018-Feb-15 17:00N 33°45' W 118°16'0 0.0
2018-Feb-15 16:30N 33°45' W 118°16'0 0.0
2018-Feb-15 16:00N 33°45' W 118°16'0 0.0
2018-Feb-15 15:30N 33°45' W 118°16'0 0.0
2018-Feb-15 15:00N 33°45' W 118°16'0 0.0
2018-Feb-15 14:27N 33°45' W 118°16'0 0.1
2018-Feb-15 14:00N 33°45' W 118°16'0 0.0
2018-Feb-15 13:30N 33°45' W 118°16'0 0.0
2018-Feb-15 13:00N 33°45' W 118°16'0 0.0
2018-Feb-15 12:30N 33°45' W 118°16'0 0.0
2018-Feb-15 12:00N 33°45' W 118°16'0 0.0
2018-Feb-15 11:30N 33°45' W 118°16'0 0.0
2018-Feb-15 11:00N 33°45' W 118°16'0 0.0
2018-Feb-15 10:30N 33°45' W 118°16'0 0.0
2018-Feb-15 10:00N 33°45' W 118°16'0 0.0
2018-Feb-15 09:30N 33°45' W 118°16'0 0.0
2018-Feb-15 09:00N 33°45' W 118°16'0 0.0
2018-Feb-15 08:30N 33°45' W 118°16'0 0.0
2018-Feb-15 08:00N 33°45' W 118°16'0 0.0
2018-Feb-15 07:30N 33°45' W 118°16'0 0.0
2018-Feb-15 07:00N 33°45' W 118°16'0 0.0
2018-Feb-15 06:24N 33°45' W 118°16'0 0.0
2018-Feb-15 06:00N 33°45' W 118°16'0 0.0
2018-Feb-15 05:30N 33°45' W 118°16'0 0.0
2018-Feb-15 04:57N 33°45' W 118°16'0 0.0
2018-Feb-15 04:30N 33°45' W 118°16'0 0.0
2018-Feb-15 04:00N 33°45' W 118°16'0 0.0
2018-Feb-15 03:30N 33°45' W 118°16'0 0.0
2018-Feb-15 03:00N 33°45' W 118°16'0 0.0
2018-Feb-15 02:30N 33°45' W 118°16'0 0.0
2018-Feb-15 02:00N 33°45' W 118°16'0 0.0
2018-Feb-15 01:30N 33°45' W 118°16'0 0.0
2018-Feb-15 01:00N 33°45' W 118°16'0 0.0
2018-Feb-15 00:30N 33°45' W 118°16'0 0.0
2018-Feb-15 00:00N 33°45' W 118°16'0 0.0
2018-Feb-14 23:30N 33°45' W 118°16'0 0.0
2018-Feb-14 23:00N 33°45' W 118°16'0 0.0
2018-Feb-14 22:30N 33°45' W 118°16'0 0.0
2018-Feb-14 22:00N 33°45' W 118°16'0 0.0
2018-Feb-14 21:30N 33°45' W 118°16'0 0.0
2018-Feb-14 21:00N 33°45' W 118°16'0 0.0
2018-Feb-14 20:30N 33°45' W 118°16'0 0.0
2018-Feb-14 20:00N 33°45' W 118°16'0 0.0
2018-Feb-14 19:30N 33°45' W 118°16'0 0.0
2018-Feb-14 19:00N 33°45' W 118°16'0 0.0
2018-Feb-14 18:30N 33°45' W 118°16'0 0.0
2018-Feb-14 18:00N 33°45' W 118°16'0 0.0
2018-Feb-14 17:30N 33°45' W 118°16'0 0.0
2018-Feb-14 17:00N 33°45' W 118°16'0 0.0
2018-Feb-14 16:30N 33°45' W 118°16'0 0.0
2018-Feb-14 16:00N 33°45' W 118°16'0 0.0
2018-Feb-14 15:30N 33°45' W 118°16'0 0.0
2018-Feb-14 15:00N 33°45' W 118°16'0 0.0
2018-Feb-14 14:30N 33°45' W 118°16'0 0.0
2018-Feb-14 14:00N 33°45' W 118°16'0 0.0
2018-Feb-14 13:30N 33°45' W 118°16'0 0.0
2018-Feb-14 13:00N 33°45' W 118°16'0 0.0
2018-Feb-14 12:30N 33°45' W 118°16'0 0.0
2018-Feb-14 12:00N 33°45' W 118°16'0 0.0
2018-Feb-14 11:30N 33°45' W 118°16'0 0.0
2018-Feb-14 11:00N 33°45' W 118°16'0 0.0
2018-Feb-14 10:30N 33°45' W 118°16'0 0.0
2018-Feb-14 09:57N 33°45' W 118°16'0 0.0
2018-Feb-14 09:30N 33°45' W 118°16'0 0.0
2018-Feb-14 09:00N 33°45' W 118°16'0 0.0
2018-Feb-14 08:30N 33°45' W 118°16'0 0.0
2018-Feb-14 08:00N 33°45' W 118°16'0 0.0
2018-Feb-14 07:30N 33°45' W 118°16'0 0.0
2018-Feb-14 07:00N 33°45' W 118°16'0 0.0
2018-Feb-14 06:30N 33°45' W 118°16'0 0.0
2018-Feb-14 06:00N 33°45' W 118°16'0 0.0
2018-Feb-14 05:30N 33°45' W 118°16'0 0.0
2018-Feb-14 05:00N 33°45' W 118°16'0 0.0
2018-Feb-14 04:30N 33°45' W 118°16'0 0.0
2018-Feb-14 04:00N 33°45' W 118°16'0 0.0
2018-Feb-14 03:30N 33°45' W 118°16'0 0.0
2018-Feb-14 03:00N 33°45' W 118°16'0 0.0
2018-Feb-14 02:30N 33°45' W 118°16'0 0.0
2018-Feb-14 02:00N 33°45' W 118°16'0 0.0
2018-Feb-14 01:30N 33°45' W 118°16'0 0.0
2018-Feb-14 01:00N 33°45' W 118°16'0 0.0
2018-Feb-14 00:30N 33°45' W 118°16'0 0.0
2018-Feb-14 00:00N 33°45' W 118°16'0 0.0
2018-Feb-13 23:30N 33°45' W 118°16'1 2.8
2018-Feb-13 22:59N 33°44' W 118°16'4 7.3
2018-Feb-13 22:30N 33°41' W 118°14'4 7.2
2018-Feb-13 22:00N 33°37' W 118°14'3 6.8
2018-Feb-13 21:30N 33°36' W 118°18'4 8.8
2018-Feb-13 21:00N 33°37' W 118°23'3510.0
2018-Feb-13 17:34N 33°54' W 118°59'1 9.8
2018-Feb-13 17:29N 33°55' W 119°00'511.1
2018-Feb-13 16:59N 33°58' W 119°06'815.0
2018-Feb-13 16:27N 34°01' W 119°14'5 9.3
2018-Feb-13 15:55N 34°03' W 119°20'5 9.4
2018-Feb-13 15:25N 34°05' W 119°25'5 9.4
2018-Feb-13 14:56N 34°06' W 119°31'4 9.3
2018-Feb-13 14:30N 34°07' W 119°35'5 9.5
2018-Feb-13 13:59N 34°08' W 119°41'4 8.9
2018-Feb-13 13:30N 34°09' W 119°46'5 9.2
2018-Feb-13 12:59N 34°11' W 119°52'5 9.2
2018-Feb-13 12:28N 34°12' W 119°57'4 8.8
2018-Feb-13 12:00N 34°13' W 120°02'813.9
2018-Feb-13 11:27N 34°15' W 120°11'818.3
2018-Feb-13 11:00N 34°17' W 120°21'1018.7
2018-Feb-13 10:29N 34°20' W 120°32'918.8
2018-Feb-13 10:00N 34°22' W 120°42'918.7
2018-Feb-13 09:31N 34°25' W 120°53'1019.2
2018-Feb-13 09:00N 34°30' W 121°03'918.8
2018-Feb-13 08:31N 34°35' W 121°13'918.8
2018-Feb-13 08:00N 34°40' W 121°23'1019.2
2018-Feb-13 07:30N 34°45' W 121°32'1019.1
2018-Feb-13 07:00N 34°50' W 121°42'  

Dump ship's entire track history